SJX863 RJSS-RCTP
Flight info
| Callsign | SJX863 |
|---|---|
| Flight time | 3h 19m |
| Altitude | 36000 |
| Route | GTC V30 GORYU Y45 IKUJI V30 KMC Y382 WAKIT Y282 OBOKE V53 POPPY SUKMO Y50 KOSHI A1 DRAKE DRAKE1B |
| Aircraft | A339/H-SADE1E2E3GHIJ3J5M1P2RWXY/LB2D1 |
Departure
| Time | 2026-04-22 08:39 |
|---|---|
| Airport | Sendai Airport (RJSS) |
Arrival
| Time | 2026-04-22 11:58 |
|---|---|
| Airport | Taiwan Taoyuan International Airport (RCTP) |
| Time | Latitude | Longitude | Altitude | Speed | Heading |
|---|---|---|---|---|---|
| 2026-04-22 08:21 | 38.13917 | 140.93172 | 18 ft | 0 kts | 173° |
| 2026-04-22 08:32 | 38.13925 | 140.93170 | 21 ft | 2 kts | 181° |
| 2026-04-22 08:32 | 38.13939 | 140.93171 | 22 ft | 2 kts | 181° |
| 2026-04-22 08:32 | 38.13954 | 140.93171 | 21 ft | 2 kts | 176° |
| 2026-04-22 08:32 | 38.13968 | 140.93170 | 21 ft | 2 kts | 171° |
| 2026-04-22 08:33 | 38.13982 | 140.93167 | 23 ft | 2 kts | 165° |
| 2026-04-22 08:33 | 38.13995 | 140.93163 | 23 ft | 2 kts | 153° |
| 2026-04-22 08:33 | 38.14008 | 140.93155 | 23 ft | 2 kts | 140° |
| 2026-04-22 08:33 | 38.14019 | 140.93143 | 21 ft | 2 kts | 127° |
| 2026-04-22 08:34 | 38.14028 | 140.93129 | 23 ft | 2 kts | 113° |
| 2026-04-22 08:34 | 38.14033 | 140.93113 | 20 ft | 2 kts | 100° |
| 2026-04-22 08:34 | 38.14037 | 140.93095 | 19 ft | 2 kts | 66° |
| 2026-04-22 08:34 | 38.14036 | 140.93094 | 18 ft | 2 kts | 72° |
| 2026-04-22 08:35 | 38.14041 | 140.93117 | 19 ft | 3 kts | 74° |
| 2026-04-22 08:35 | 38.14043 | 140.93130 | 20 ft | 0 kts | 80° |
| 2026-04-22 08:37 | 38.14045 | 140.93148 | 19 ft | 8 kts | 80° |
| 2026-04-22 08:37 | 38.14067 | 140.93250 | 21 ft | 13 kts | 60° |
| 2026-04-22 08:38 | 38.14144 | 140.93273 | 21 ft | 12 kts | 356° |
| 2026-04-22 08:38 | 38.14210 | 140.93247 | 26 ft | 9 kts | 321° |
| 2026-04-22 08:38 | 38.14218 | 140.93204 | 24 ft | 0 kts | 263° |
| 2026-04-22 08:38 | 38.14206 | 140.93072 | 22 ft | 48 kts | 263° |
| 2026-04-22 08:39 | 38.14126 | 140.92278 | 26 ft | 129 kts | 263° |
| 2026-04-22 08:39 | 38.13979 | 140.90921 | 294 ft | 167 kts | 262° |
| 2026-04-22 08:39 | 38.13793 | 140.89443 | 1076 ft | 172 kts | 259° |
| 2026-04-22 08:39 | 38.13611 | 140.87934 | 1905 ft | 177 kts | 261° |
| 2026-04-22 08:40 | 38.13457 | 140.86327 | 2522 ft | 189 kts | 259° |
| 2026-04-22 08:40 | 38.13285 | 140.84630 | 3226 ft | 198 kts | 262° |
| 2026-04-22 08:40 | 38.13039 | 140.82861 | 3767 ft | 213 kts | 252° |
| 2026-04-22 08:40 | 38.12339 | 140.81103 | 4096 ft | 233 kts | 238° |
| 2026-04-22 08:41 | 38.11336 | 140.79462 | 4789 ft | 236 kts | 235° |
| 2026-04-22 08:41 | 38.10320 | 140.77839 | 5585 ft | 235 kts | 236° |
| 2026-04-22 08:41 | 38.09298 | 140.76190 | 6266 ft | 240 kts | 236° |
| 2026-04-22 08:41 | 38.08257 | 140.74518 | 6931 ft | 244 kts | 236° |
| 2026-04-22 08:42 | 38.07192 | 140.72815 | 7586 ft | 248 kts | 235° |
| 2026-04-22 08:42 | 38.06110 | 140.71090 | 8252 ft | 252 kts | 235° |
| 2026-04-22 08:42 | 38.05006 | 140.69332 | 8893 ft | 257 kts | 235° |
| 2026-04-22 08:42 | 38.03884 | 140.67552 | 9588 ft | 260 kts | 234° |
| 2026-04-22 08:43 | 38.02744 | 140.65742 | 10195 ft | 267 kts | 234° |
| 2026-04-22 08:43 | 38.01614 | 140.63764 | 10376 ft | 286 kts | 242° |
| 2026-04-22 08:43 | 38.00854 | 140.61361 | 10574 ft | 303 kts | 257° |
| 2026-04-22 08:43 | 38.00638 | 140.58683 | 11063 ft | 309 kts | 269° |
| 2026-04-22 08:44 | 38.00607 | 140.55932 | 11580 ft | 315 kts | 269° |
| 2026-04-22 08:44 | 38.00554 | 140.53156 | 12269 ft | 317 kts | 269° |
| 2026-04-22 08:44 | 38.00485 | 140.50342 | 12944 ft | 319 kts | 268° |
| 2026-04-22 08:44 | 38.00434 | 140.48466 | 13322 ft | 324 kts | 268° |
| 2026-04-22 08:45 | 38.00353 | 140.45599 | 13946 ft | 326 kts | 268° |
| 2026-04-22 08:45 | 38.00271 | 140.42723 | 14572 ft | 327 kts | 268° |
| 2026-04-22 08:45 | 38.00188 | 140.39846 | 15199 ft | 328 kts | 268° |
| 2026-04-22 08:45 | 38.00077 | 140.36008 | 15996 ft | 330 kts | 267° |
| 2026-04-22 08:46 | 38.00020 | 140.34043 | 16417 ft | 330 kts | 267° |
| 2026-04-22 08:46 | 37.99934 | 140.31125 | 16989 ft | 333 kts | 267° |
| 2026-04-22 08:46 | 37.99821 | 140.27234 | 17790 ft | 333 kts | 266° |
| 2026-04-22 08:46 | 37.99763 | 140.25247 | 18129 ft | 337 kts | 266° |
| 2026-04-22 08:47 | 37.99674 | 140.22267 | 18654 ft | 338 kts | 266° |
| 2026-04-22 08:47 | 37.99585 | 140.19303 | 19283 ft | 335 kts | 266° |
| 2026-04-22 08:47 | 37.99496 | 140.16361 | 19897 ft | 334 kts | 266° |
| 2026-04-22 08:47 | 37.99377 | 140.12469 | 20665 ft | 334 kts | 266° |
| 2026-04-22 08:48 | 37.99315 | 140.10484 | 21076 ft | 333 kts | 266° |
| 2026-04-22 08:48 | 37.99224 | 140.07554 | 21672 ft | 332 kts | 266° |
| 2026-04-22 08:48 | 37.99132 | 140.04629 | 22270 ft | 332 kts | 266° |
| 2026-04-22 08:48 | 37.99037 | 140.01696 | 22806 ft | 334 kts | 266° |
| 2026-04-22 08:49 | 37.98943 | 139.98769 | 23499 ft | 331 kts | 266° |
| 2026-04-22 08:49 | 37.98847 | 139.95850 | 23982 ft | 332 kts | 266° |
| 2026-04-22 08:49 | 37.98750 | 139.92921 | 24444 ft | 333 kts | 266° |
| 2026-04-22 08:49 | 37.98655 | 139.89990 | 24970 ft | 332 kts | 266° |
| 2026-04-22 08:50 | 37.98561 | 139.87101 | 25450 ft | 334 kts | 267° |
| 2026-04-22 08:50 | 37.98462 | 139.84150 | 25873 ft | 336 kts | 267° |
| 2026-04-22 08:50 | 37.98365 | 139.81202 | 26463 ft | 334 kts | 267° |
| 2026-04-22 08:50 | 37.98266 | 139.78251 | 26897 ft | 336 kts | 267° |
| 2026-04-22 08:51 | 37.98166 | 139.75286 | 27374 ft | 337 kts | 267° |
| 2026-04-22 08:51 | 37.98065 | 139.72321 | 27908 ft | 337 kts | 267° |
| 2026-04-22 08:51 | 37.97962 | 139.69356 | 28376 ft | 336 kts | 267° |
| 2026-04-22 08:51 | 37.97858 | 139.66385 | 28726 ft | 339 kts | 268° |
| 2026-04-22 08:52 | 37.97752 | 139.63393 | 29093 ft | 340 kts | 267° |
| 2026-04-22 08:52 | 37.97643 | 139.60403 | 29639 ft | 338 kts | 268° |
| 2026-04-22 08:52 | 37.97538 | 139.57419 | 30069 ft | 340 kts | 268° |
| 2026-04-22 08:52 | 37.97433 | 139.54416 | 30384 ft | 343 kts | 268° |
| 2026-04-22 08:53 | 37.97327 | 139.51384 | 30647 ft | 345 kts | 268° |
| 2026-04-22 08:53 | 37.97217 | 139.48342 | 30955 ft | 346 kts | 267° |
| 2026-04-22 08:53 | 37.97109 | 139.45295 | 31279 ft | 347 kts | 267° |
| 2026-04-22 08:53 | 37.96996 | 139.42226 | 31600 ft | 349 kts | 267° |
| 2026-04-22 08:54 | 37.96881 | 139.39142 | 31927 ft | 351 kts | 267° |
| 2026-04-22 08:54 | 37.96764 | 139.36041 | 32257 ft | 353 kts | 266° |
| 2026-04-22 08:54 | 37.96647 | 139.32927 | 32557 ft | 355 kts | 266° |
| 2026-04-22 08:54 | 37.96530 | 139.29798 | 32825 ft | 356 kts | 266° |
| 2026-04-22 08:55 | 37.96412 | 139.26660 | 33056 ft | 358 kts | 266° |
| 2026-04-22 08:55 | 37.96292 | 139.23508 | 33264 ft | 359 kts | 266° |
| 2026-04-22 08:55 | 37.96172 | 139.20345 | 33450 ft | 360 kts | 266° |
| 2026-04-22 08:55 | 37.96028 | 139.17182 | 33645 ft | 360 kts | 264° |
| 2026-04-22 08:56 | 37.95614 | 139.14054 | 33854 ft | 360 kts | 258° |
| 2026-04-22 08:56 | 37.94873 | 139.11017 | 34049 ft | 362 kts | 252° |
| 2026-04-22 08:56 | 37.93821 | 139.08110 | 34264 ft | 365 kts | 247° |
| 2026-04-22 08:56 | 37.92464 | 139.05372 | 34459 ft | 369 kts | 241° |
| 2026-04-22 08:57 | 37.90966 | 139.02728 | 34655 ft | 369 kts | 242° |
| 2026-04-22 08:57 | 37.89487 | 139.00079 | 34845 ft | 368 kts | 242° |
| 2026-04-22 08:57 | 37.88019 | 138.97434 | 35037 ft | 367 kts | 242° |
| 2026-04-22 08:57 | 37.86553 | 138.94791 | 35239 ft | 366 kts | 242° |
| 2026-04-22 08:58 | 37.85091 | 138.92160 | 35430 ft | 365 kts | 242° |
| 2026-04-22 08:58 | 37.83629 | 138.89531 | 35613 ft | 365 kts | 242° |
| 2026-04-22 08:58 | 37.82168 | 138.86910 | 35821 ft | 364 kts | 242° |
| 2026-04-22 08:58 | 37.80709 | 138.84294 | 35983 ft | 364 kts | 242° |
| 2026-04-22 08:59 | 37.79252 | 138.81685 | 35986 ft | 363 kts | 242° |
| 2026-04-22 08:59 | 37.76340 | 138.76474 | 35984 ft | 363 kts | 242° |
| 2026-04-22 09:00 | 37.73421 | 138.71259 | 35984 ft | 364 kts | 242° |
| 2026-04-22 09:00 | 37.70513 | 138.66074 | 35988 ft | 364 kts | 241° |
| 2026-04-22 09:01 | 37.67584 | 138.60859 | 35984 ft | 364 kts | 241° |
| 2026-04-22 09:01 | 37.64631 | 138.55608 | 35987 ft | 364 kts | 241° |
| 2026-04-22 09:02 | 37.61714 | 138.50431 | 35988 ft | 365 kts | 241° |
| 2026-04-22 09:02 | 37.58767 | 138.45223 | 35988 ft | 365 kts | 241° |
| 2026-04-22 09:03 | 37.55790 | 138.40039 | 35989 ft | 365 kts | 241° |
| 2026-04-22 09:03 | 37.52812 | 138.34857 | 35982 ft | 365 kts | 241° |
| 2026-04-22 09:04 | 37.49832 | 138.29672 | 36002 ft | 365 kts | 241° |
| 2026-04-22 09:04 | 37.46847 | 138.24485 | 35991 ft | 366 kts | 241° |
| 2026-04-22 09:05 | 37.43857 | 138.19296 | 35981 ft | 367 kts | 241° |
| 2026-04-22 09:05 | 37.40860 | 138.14105 | 35982 ft | 367 kts | 241° |
| 2026-04-22 09:06 | 37.37856 | 138.08910 | 35985 ft | 367 kts | 240° |
| 2026-04-22 09:06 | 37.34847 | 138.03713 | 35988 ft | 368 kts | 240° |
| 2026-04-22 09:07 | 37.31830 | 137.98512 | 35985 ft | 369 kts | 240° |
| 2026-04-22 09:07 | 37.28807 | 137.93306 | 35988 ft | 369 kts | 240° |
| 2026-04-22 09:08 | 37.25777 | 137.88099 | 35988 ft | 369 kts | 240° |
| 2026-04-22 09:08 | 37.22896 | 137.82788 | 35992 ft | 368 kts | 243° |
| 2026-04-22 09:09 | 37.20081 | 137.77424 | 35992 ft | 368 kts | 243° |
| 2026-04-22 09:09 | 37.17136 | 137.72143 | 35993 ft | 371 kts | 240° |
| 2026-04-22 09:10 | 37.14100 | 137.66960 | 35996 ft | 371 kts | 240° |
| 2026-04-22 09:10 | 37.11058 | 137.61731 | 35996 ft | 372 kts | 241° |
| 2026-04-22 09:11 | 37.08019 | 137.56486 | 36000 ft | 372 kts | 241° |
| 2026-04-22 09:11 | 37.04978 | 137.51239 | 35999 ft | 373 kts | 241° |
| 2026-04-22 09:12 | 37.01900 | 137.46002 | 36003 ft | 374 kts | 240° |
| 2026-04-22 09:12 | 36.98746 | 137.40821 | 36005 ft | 375 kts | 240° |
| 2026-04-22 09:13 | 36.95589 | 137.35633 | 36006 ft | 375 kts | 240° |
| 2026-04-22 09:13 | 36.92437 | 137.30439 | 36007 ft | 375 kts | 240° |
| 2026-04-22 09:14 | 36.89281 | 137.25244 | 36015 ft | 375 kts | 240° |
| 2026-04-22 09:14 | 36.86119 | 137.20047 | 36011 ft | 376 kts | 240° |
| 2026-04-22 09:15 | 36.82953 | 137.14851 | 36010 ft | 376 kts | 240° |
| 2026-04-22 09:15 | 36.79843 | 137.09610 | 36012 ft | 375 kts | 242° |
| 2026-04-22 09:16 | 36.76873 | 137.04262 | 36015 ft | 375 kts | 242° |
| 2026-04-22 09:16 | 36.73882 | 136.98924 | 36013 ft | 376 kts | 242° |
| 2026-04-22 09:17 | 36.70868 | 136.93594 | 36007 ft | 377 kts | 242° |
| 2026-04-22 09:17 | 36.67844 | 136.88263 | 36015 ft | 377 kts | 242° |
| 2026-04-22 09:18 | 36.65237 | 136.83673 | 36008 ft | 377 kts | 242° |
| 2026-04-22 09:18 | 36.62190 | 136.78315 | 35999 ft | 377 kts | 242° |
| 2026-04-22 09:19 | 36.59139 | 136.72994 | 36014 ft | 378 kts | 241° |
| 2026-04-22 09:19 | 36.56011 | 136.67765 | 36012 ft | 379 kts | 240° |
| 2026-04-22 09:20 | 36.52854 | 136.62499 | 36008 ft | 380 kts | 240° |
| 2026-04-22 09:20 | 36.49705 | 136.57229 | 36003 ft | 380 kts | 240° |
| 2026-04-22 09:21 | 36.46555 | 136.51958 | 35998 ft | 380 kts | 240° |
| 2026-04-22 09:21 | 36.43400 | 136.46689 | 35997 ft | 380 kts | 240° |
| 2026-04-22 09:22 | 36.40174 | 136.41477 | 35993 ft | 383 kts | 237° |
| 2026-04-22 09:22 | 36.36370 | 136.36742 | 35992 ft | 392 kts | 231° |
| 2026-04-22 09:23 | 36.32287 | 136.32261 | 35991 ft | 392 kts | 231° |
| 2026-04-22 09:23 | 36.28220 | 136.27764 | 35991 ft | 392 kts | 231° |
| 2026-04-22 09:24 | 36.24153 | 136.23266 | 36004 ft | 392 kts | 231° |
| 2026-04-22 09:24 | 36.20082 | 136.18772 | 36003 ft | 392 kts | 231° |
| 2026-04-22 09:25 | 36.16003 | 136.14275 | 35996 ft | 393 kts | 231° |
| 2026-04-22 09:25 | 36.11919 | 136.09780 | 36016 ft | 393 kts | 231° |
| 2026-04-22 09:26 | 36.08306 | 136.05809 | 36008 ft | 394 kts | 231° |
| 2026-04-22 09:26 | 36.04204 | 136.01308 | 36018 ft | 395 kts | 231° |
| 2026-04-22 09:27 | 36.00094 | 135.96805 | 36013 ft | 395 kts | 231° |
| 2026-04-22 09:27 | 35.95983 | 135.92306 | 36009 ft | 395 kts | 231° |
| 2026-04-22 09:28 | 35.91874 | 135.87817 | 36003 ft | 395 kts | 231° |
| 2026-04-22 09:28 | 35.87789 | 135.83361 | 36005 ft | 395 kts | 231° |
| 2026-04-22 09:29 | 35.83674 | 135.78877 | 36005 ft | 395 kts | 231° |
| 2026-04-22 09:29 | 35.79553 | 135.74393 | 36006 ft | 396 kts | 231° |
| 2026-04-22 09:30 | 35.75425 | 135.69908 | 36002 ft | 396 kts | 231° |
| 2026-04-22 09:30 | 35.71288 | 135.65420 | 36011 ft | 396 kts | 231° |
| 2026-04-22 09:31 | 35.67148 | 135.60936 | 36010 ft | 397 kts | 231° |
| 2026-04-22 09:31 | 35.62982 | 135.56476 | 36003 ft | 398 kts | 227° |
| 2026-04-22 09:32 | 35.58809 | 135.52036 | 36001 ft | 396 kts | 231° |
| 2026-04-22 09:32 | 35.54712 | 135.47515 | 35999 ft | 396 kts | 231° |
| 2026-04-22 09:33 | 35.50560 | 135.43007 | 36003 ft | 399 kts | 230° |
| 2026-04-22 09:33 | 35.46393 | 135.38537 | 36003 ft | 398 kts | 230° |
| 2026-04-22 09:34 | 35.42924 | 135.34813 | 35999 ft | 398 kts | 230° |
| 2026-04-22 09:34 | 35.38053 | 135.29592 | 36003 ft | 398 kts | 230° |
| 2026-04-22 09:35 | 35.32496 | 135.23648 | 35999 ft | 398 kts | 230° |
| 2026-04-22 09:35 | 35.28324 | 135.19189 | 36008 ft | 398 kts | 230° |
| 2026-04-22 09:36 | 35.24148 | 135.14732 | 35998 ft | 398 kts | 230° |
| 2026-04-22 09:36 | 35.19970 | 135.10280 | 36002 ft | 398 kts | 230° |
| 2026-04-22 09:37 | 35.15795 | 135.05835 | 35995 ft | 398 kts | 230° |
| 2026-04-22 09:37 | 35.11619 | 135.01399 | 35987 ft | 399 kts | 230° |
| 2026-04-22 09:38 | 35.07432 | 134.96955 | 36007 ft | 399 kts | 230° |
| 2026-04-22 09:38 | 35.03235 | 134.92511 | 36002 ft | 399 kts | 230° |
| 2026-04-22 09:39 | 34.99193 | 134.87918 | 35998 ft | 396 kts | 232° |
| 2026-04-22 09:39 | 34.95276 | 134.83261 | 35987 ft | 396 kts | 232° |
| 2026-04-22 09:40 | 34.91304 | 134.78605 | 35999 ft | 396 kts | 232° |
| 2026-04-22 09:40 | 34.87309 | 134.73957 | 36001 ft | 397 kts | 232° |
| 2026-04-22 09:41 | 34.83312 | 134.69318 | 36002 ft | 397 kts | 232° |
| 2026-04-22 09:41 | 34.79299 | 134.64691 | 36012 ft | 399 kts | 230° |
| 2026-04-22 09:42 | 34.75001 | 134.60346 | 36008 ft | 403 kts | 228° |
| 2026-04-22 09:42 | 34.70672 | 134.56019 | 36009 ft | 403 kts | 228° |
| 2026-04-22 09:43 | 34.66339 | 134.51684 | 36010 ft | 404 kts | 228° |
| 2026-04-22 09:43 | 34.62002 | 134.47347 | 36007 ft | 404 kts | 228° |
| 2026-04-22 09:44 | 34.57657 | 134.43010 | 36003 ft | 405 kts | 228° |
| 2026-04-22 09:44 | 34.53304 | 134.38672 | 36011 ft | 405 kts | 228° |
| 2026-04-22 09:45 | 34.48946 | 134.34336 | 36014 ft | 405 kts | 228° |
| 2026-04-22 09:45 | 34.44584 | 134.29998 | 36000 ft | 406 kts | 228° |
| 2026-04-22 09:46 | 34.40077 | 134.25822 | 35985 ft | 410 kts | 225° |
| 2026-04-22 09:46 | 34.35450 | 134.21779 | 35979 ft | 410 kts | 225° |
| 2026-04-22 09:47 | 34.30824 | 134.17726 | 35975 ft | 411 kts | 225° |
| 2026-04-22 09:47 | 34.26191 | 134.13671 | 35969 ft | 411 kts | 225° |
| 2026-04-22 09:48 | 34.21551 | 134.09617 | 35965 ft | 412 kts | 224° |
| 2026-04-22 09:48 | 34.16939 | 134.05591 | 35958 ft | 412 kts | 224° |
| 2026-04-22 09:49 | 34.12289 | 134.01540 | 35963 ft | 412 kts | 224° |
| 2026-04-22 09:49 | 34.07632 | 133.97489 | 35971 ft | 413 kts | 224° |
| 2026-04-22 09:50 | 34.02940 | 133.93493 | 35979 ft | 416 kts | 221° |
| 2026-04-22 09:50 | 33.97775 | 133.90195 | 35986 ft | 427 kts | 213° |
| 2026-04-22 09:51 | 33.92280 | 133.87432 | 35996 ft | 426 kts | 212° |
| 2026-04-22 09:51 | 33.86815 | 133.84641 | 36003 ft | 427 kts | 213° |
| 2026-04-22 09:52 | 33.81687 | 133.81248 | 35994 ft | 415 kts | 222° |
| 2026-04-22 09:52 | 33.77188 | 133.76993 | 35986 ft | 408 kts | 230° |
| 2026-04-22 09:53 | 33.73055 | 133.72305 | 35992 ft | 408 kts | 230° |
| 2026-04-22 09:53 | 33.68908 | 133.67659 | 35990 ft | 408 kts | 230° |
| 2026-04-22 09:54 | 33.64741 | 133.63005 | 35998 ft | 410 kts | 230° |
| 2026-04-22 09:54 | 33.60559 | 133.58344 | 36006 ft | 411 kts | 229° |
| 2026-04-22 09:55 | 33.56365 | 133.53675 | 36004 ft | 412 kts | 229° |
| 2026-04-22 09:55 | 33.52179 | 133.49021 | 35987 ft | 409 kts | 229° |
| 2026-04-22 09:56 | 33.47998 | 133.44378 | 35986 ft | 410 kts | 229° |
| 2026-04-22 09:56 | 33.43816 | 133.39739 | 35986 ft | 412 kts | 229° |
| 2026-04-22 09:57 | 33.39608 | 133.35082 | 35975 ft | 412 kts | 229° |
| 2026-04-22 09:57 | 33.35399 | 133.30427 | 35990 ft | 413 kts | 229° |
| 2026-04-22 09:58 | 33.31177 | 133.25765 | 35989 ft | 413 kts | 229° |
| 2026-04-22 09:58 | 33.26982 | 133.21075 | 35987 ft | 411 kts | 231° |
| 2026-04-22 09:59 | 33.23346 | 133.15868 | 35988 ft | 406 kts | 239° |
| 2026-04-22 09:59 | 33.20136 | 133.10318 | 35995 ft | 406 kts | 239° |
| 2026-04-22 10:00 | 33.16894 | 133.04783 | 35990 ft | 407 kts | 239° |
| 2026-04-22 10:00 | 33.13636 | 132.99243 | 35990 ft | 408 kts | 239° |
| 2026-04-22 10:01 | 33.10390 | 132.93731 | 35989 ft | 409 kts | 239° |
| 2026-04-22 10:01 | 33.07118 | 132.88183 | 35986 ft | 409 kts | 239° |
| 2026-04-22 10:02 | 33.03849 | 132.82647 | 35984 ft | 408 kts | 239° |
| 2026-04-22 10:02 | 33.00572 | 132.77107 | 35980 ft | 409 kts | 239° |
| 2026-04-22 10:03 | 32.97294 | 132.71566 | 35980 ft | 409 kts | 239° |
| 2026-04-22 10:03 | 32.94013 | 132.66025 | 35977 ft | 410 kts | 239° |
| 2026-04-22 10:04 | 32.90720 | 132.60482 | 35972 ft | 410 kts | 239° |
| 2026-04-22 10:04 | 32.87424 | 132.54942 | 35969 ft | 410 kts | 239° |
| 2026-04-22 10:05 | 32.84126 | 132.49403 | 35969 ft | 410 kts | 239° |
| 2026-04-22 10:05 | 32.80824 | 132.43867 | 35967 ft | 410 kts | 239° |
| 2026-04-22 10:06 | 32.77519 | 132.38334 | 35964 ft | 411 kts | 239° |
| 2026-04-22 10:06 | 32.74208 | 132.32800 | 35960 ft | 411 kts | 239° |
| 2026-04-22 10:07 | 32.70894 | 132.27268 | 35961 ft | 411 kts | 239° |
| 2026-04-22 10:07 | 32.67575 | 132.21739 | 35963 ft | 411 kts | 239° |
| 2026-04-22 10:08 | 32.64262 | 132.16208 | 35959 ft | 411 kts | 239° |
| 2026-04-22 10:08 | 32.61002 | 132.10634 | 35964 ft | 411 kts | 240° |
| 2026-04-22 10:09 | 32.57743 | 132.05066 | 35965 ft | 411 kts | 240° |
| 2026-04-22 10:09 | 32.54472 | 131.99509 | 35963 ft | 411 kts | 240° |
| 2026-04-22 10:10 | 32.51574 | 131.94593 | 35962 ft | 411 kts | 240° |
| 2026-04-22 10:10 | 32.48320 | 131.89081 | 35960 ft | 411 kts | 239° |
| 2026-04-22 10:11 | 32.45024 | 131.83504 | 35959 ft | 410 kts | 239° |
| 2026-04-22 10:11 | 32.41770 | 131.78008 | 35963 ft | 410 kts | 239° |
| 2026-04-22 10:12 | 32.38490 | 131.72476 | 35953 ft | 411 kts | 239° |
| 2026-04-22 10:12 | 32.35206 | 131.66945 | 35964 ft | 411 kts | 239° |
| 2026-04-22 10:13 | 32.31916 | 131.61413 | 35957 ft | 411 kts | 239° |
| 2026-04-22 10:13 | 32.28618 | 131.55875 | 35954 ft | 412 kts | 239° |
| 2026-04-22 10:14 | 32.25315 | 131.50339 | 35962 ft | 412 kts | 239° |
| 2026-04-22 10:14 | 32.22013 | 131.44808 | 35955 ft | 412 kts | 239° |
| 2026-04-22 10:15 | 32.18704 | 131.39272 | 35960 ft | 412 kts | 239° |
| 2026-04-22 10:15 | 32.15389 | 131.33736 | 35953 ft | 413 kts | 239° |
| 2026-04-22 10:16 | 32.12068 | 131.28204 | 35951 ft | 413 kts | 239° |
| 2026-04-22 10:16 | 32.08760 | 131.22699 | 35955 ft | 414 kts | 239° |
| 2026-04-22 10:17 | 32.05436 | 131.17170 | 35947 ft | 412 kts | 239° |
| 2026-04-22 10:17 | 32.02544 | 131.12367 | 35952 ft | 412 kts | 239° |
| 2026-04-22 10:18 | 31.99220 | 131.06863 | 35954 ft | 413 kts | 239° |
| 2026-04-22 10:18 | 31.95893 | 131.01354 | 35948 ft | 413 kts | 239° |
| 2026-04-22 10:19 | 31.92563 | 130.95847 | 35940 ft | 413 kts | 238° |
| 2026-04-22 10:19 | 31.89233 | 130.90349 | 35935 ft | 413 kts | 238° |
| 2026-04-22 10:20 | 31.85896 | 130.84847 | 35934 ft | 413 kts | 238° |
| 2026-04-22 10:20 | 31.82549 | 130.79340 | 35937 ft | 414 kts | 238° |
| 2026-04-22 10:21 | 31.79760 | 130.74756 | 35932 ft | 415 kts | 238° |
| 2026-04-22 10:21 | 31.76404 | 130.69248 | 35935 ft | 415 kts | 238° |
| 2026-04-22 10:22 | 31.73039 | 130.63731 | 35939 ft | 415 kts | 238° |
| 2026-04-22 10:22 | 31.69671 | 130.58217 | 35925 ft | 416 kts | 238° |
| 2026-04-22 10:23 | 31.66185 | 130.52823 | 35919 ft | 417 kts | 235° |
| 2026-04-22 10:23 | 31.62572 | 130.47490 | 35906 ft | 417 kts | 236° |
| 2026-04-22 10:24 | 31.59070 | 130.42106 | 35900 ft | 418 kts | 237° |
| 2026-04-22 10:24 | 31.55524 | 130.36691 | 35896 ft | 419 kts | 236° |
| 2026-04-22 10:25 | 31.51953 | 130.31278 | 35892 ft | 420 kts | 236° |
| 2026-04-22 10:25 | 31.48372 | 130.25864 | 35891 ft | 420 kts | 236° |
| 2026-04-22 10:26 | 31.44789 | 130.20451 | 35887 ft | 421 kts | 236° |
| 2026-04-22 10:26 | 31.41202 | 130.15042 | 35889 ft | 420 kts | 236° |
| 2026-04-22 10:27 | 31.37609 | 130.09630 | 35883 ft | 421 kts | 236° |
| 2026-04-22 10:27 | 31.34010 | 130.04216 | 35879 ft | 422 kts | 236° |
| 2026-04-22 10:28 | 31.30404 | 129.98800 | 35873 ft | 422 kts | 236° |
| 2026-04-22 10:28 | 31.26791 | 129.93381 | 35869 ft | 423 kts | 236° |
| 2026-04-22 10:29 | 31.23172 | 129.87959 | 35874 ft | 423 kts | 236° |
| 2026-04-22 10:29 | 31.19547 | 129.82536 | 35879 ft | 423 kts | 236° |
| 2026-04-22 10:30 | 31.15918 | 129.77114 | 35876 ft | 424 kts | 236° |
| 2026-04-22 10:30 | 31.12306 | 129.71726 | 35875 ft | 424 kts | 236° |
| 2026-04-22 10:31 | 31.08673 | 129.66313 | 35871 ft | 424 kts | 236° |
| 2026-04-22 10:31 | 31.05033 | 129.60898 | 35864 ft | 424 kts | 236° |
| 2026-04-22 10:32 | 31.01391 | 129.55485 | 35862 ft | 424 kts | 236° |
| 2026-04-22 10:32 | 30.97742 | 129.50070 | 35859 ft | 425 kts | 236° |
| 2026-04-22 10:33 | 30.94085 | 129.44651 | 35853 ft | 425 kts | 235° |
| 2026-04-22 10:33 | 30.90424 | 129.39234 | 35853 ft | 426 kts | 235° |
| 2026-04-22 10:34 | 30.86756 | 129.33815 | 35848 ft | 426 kts | 235° |
| 2026-04-22 10:34 | 30.83419 | 129.28890 | 35845 ft | 427 kts | 235° |
| 2026-04-22 10:35 | 30.79912 | 129.23720 | 35842 ft | 427 kts | 235° |
| 2026-04-22 10:35 | 30.76233 | 129.18290 | 35844 ft | 427 kts | 236° |
| 2026-04-22 10:36 | 30.72633 | 129.12794 | 35845 ft | 427 kts | 236° |
| 2026-04-22 10:36 | 30.69037 | 129.07289 | 35843 ft | 428 kts | 236° |
| 2026-04-22 10:37 | 30.63619 | 128.99052 | 35833 ft | 428 kts | 236° |
| 2026-04-22 10:38 | 30.59997 | 128.93559 | 35837 ft | 428 kts | 235° |
| 2026-04-22 10:38 | 30.56374 | 128.88072 | 35836 ft | 428 kts | 235° |
| 2026-04-22 10:39 | 30.52747 | 128.82588 | 35840 ft | 428 kts | 235° |
| 2026-04-22 10:39 | 30.49117 | 128.77107 | 35844 ft | 428 kts | 235° |
| 2026-04-22 10:40 | 30.45484 | 128.71629 | 35818 ft | 429 kts | 235° |
| 2026-04-22 10:40 | 30.41849 | 128.66154 | 35817 ft | 429 kts | 235° |
| 2026-04-22 10:41 | 30.38209 | 128.60680 | 35834 ft | 429 kts | 235° |
| 2026-04-22 10:41 | 30.34561 | 128.55202 | 35829 ft | 430 kts | 234° |
| 2026-04-22 10:42 | 30.30909 | 128.49724 | 35826 ft | 430 kts | 234° |
| 2026-04-22 10:42 | 30.27249 | 128.44242 | 35818 ft | 431 kts | 234° |
| 2026-04-22 10:43 | 30.23582 | 128.38758 | 35817 ft | 431 kts | 234° |
| 2026-04-22 10:43 | 30.19906 | 128.33268 | 35826 ft | 432 kts | 234° |
| 2026-04-22 10:44 | 30.16222 | 128.27773 | 35823 ft | 433 kts | 234° |
| 2026-04-22 10:44 | 30.12530 | 128.22274 | 35820 ft | 434 kts | 234° |
| 2026-04-22 10:45 | 30.08853 | 128.16804 | 35821 ft | 434 kts | 234° |
| 2026-04-22 10:45 | 30.05145 | 128.11296 | 35822 ft | 435 kts | 234° |
| 2026-04-22 10:46 | 30.01430 | 128.05785 | 35824 ft | 435 kts | 234° |
| 2026-04-22 10:46 | 29.97708 | 128.00293 | 35818 ft | 433 kts | 236° |
| 2026-04-22 10:47 | 29.94003 | 127.94806 | 35824 ft | 434 kts | 236° |
| 2026-04-22 10:47 | 29.90290 | 127.89315 | 35822 ft | 434 kts | 235° |
| 2026-04-22 10:48 | 29.86564 | 127.83825 | 35820 ft | 435 kts | 234° |
| 2026-04-22 10:48 | 29.82620 | 127.78516 | 35822 ft | 436 kts | 233° |
| 2026-04-22 10:49 | 29.78673 | 127.73210 | 35833 ft | 436 kts | 233° |
| 2026-04-22 10:49 | 29.74722 | 127.67904 | 35822 ft | 436 kts | 233° |
| 2026-04-22 10:50 | 29.70768 | 127.62607 | 35812 ft | 437 kts | 233° |
| 2026-04-22 10:50 | 29.66808 | 127.57309 | 35813 ft | 437 kts | 233° |
| 2026-04-22 10:51 | 29.62848 | 127.52017 | 35830 ft | 437 kts | 233° |
| 2026-04-22 10:51 | 29.58882 | 127.46726 | 35813 ft | 437 kts | 233° |
| 2026-04-22 10:52 | 29.55049 | 127.41324 | 35815 ft | 436 kts | 236° |
| 2026-04-22 10:52 | 29.51350 | 127.35871 | 35827 ft | 436 kts | 236° |
| 2026-04-22 10:53 | 29.47598 | 127.30408 | 35820 ft | 436 kts | 235° |
| 2026-04-22 10:53 | 29.43824 | 127.24955 | 35817 ft | 436 kts | 235° |
| 2026-04-22 10:54 | 29.40048 | 127.19512 | 35819 ft | 436 kts | 235° |
| 2026-04-22 10:54 | 29.36268 | 127.14069 | 35816 ft | 436 kts | 235° |
| 2026-04-22 10:55 | 29.32483 | 127.08625 | 35815 ft | 436 kts | 235° |
| 2026-04-22 10:55 | 29.28699 | 127.03190 | 35812 ft | 437 kts | 235° |
| 2026-04-22 10:56 | 29.24909 | 126.97752 | 35813 ft | 437 kts | 235° |
| 2026-04-22 10:56 | 29.21113 | 126.92315 | 35812 ft | 437 kts | 235° |
| 2026-04-22 10:57 | 29.17317 | 126.86883 | 35812 ft | 437 kts | 235° |
| 2026-04-22 10:57 | 29.13515 | 126.81450 | 35812 ft | 437 kts | 235° |
| 2026-04-22 10:58 | 29.09711 | 126.76021 | 35815 ft | 437 kts | 235° |
| 2026-04-22 10:58 | 29.05905 | 126.70595 | 35813 ft | 437 kts | 234° |
| 2026-04-22 10:59 | 29.02096 | 126.65175 | 35815 ft | 437 kts | 234° |
| 2026-04-22 10:59 | 28.98286 | 126.59758 | 35816 ft | 437 kts | 234° |
| 2026-04-22 11:00 | 28.94461 | 126.54417 | 35814 ft | 438 kts | 233° |
| 2026-04-22 11:00 | 28.90507 | 126.49127 | 35815 ft | 438 kts | 233° |
| 2026-04-22 11:01 | 28.86559 | 126.43833 | 35817 ft | 438 kts | 233° |
| 2026-04-22 11:01 | 28.82623 | 126.38536 | 35816 ft | 438 kts | 233° |
| 2026-04-22 11:02 | 28.78685 | 126.33238 | 35817 ft | 438 kts | 233° |
| 2026-04-22 11:02 | 28.74745 | 126.27945 | 35807 ft | 438 kts | 233° |
| 2026-04-22 11:03 | 28.70803 | 126.22657 | 35813 ft | 438 kts | 233° |
| 2026-04-22 11:03 | 28.66857 | 126.17369 | 35822 ft | 438 kts | 233° |
| 2026-04-22 11:04 | 28.62908 | 126.12079 | 35817 ft | 438 kts | 233° |
| 2026-04-22 11:04 | 28.59078 | 126.06685 | 35810 ft | 438 kts | 235° |
| 2026-04-22 11:05 | 28.55274 | 126.01265 | 35815 ft | 438 kts | 235° |
| 2026-04-22 11:05 | 28.51450 | 125.95862 | 35817 ft | 439 kts | 234° |
| 2026-04-22 11:06 | 28.47613 | 125.90465 | 35819 ft | 439 kts | 234° |
| 2026-04-22 11:06 | 28.43772 | 125.85069 | 35818 ft | 439 kts | 234° |
| 2026-04-22 11:07 | 28.40427 | 125.80375 | 35821 ft | 439 kts | 234° |
| 2026-04-22 11:07 | 28.36581 | 125.74984 | 35822 ft | 439 kts | 234° |
| 2026-04-22 11:08 | 28.32729 | 125.69592 | 35822 ft | 439 kts | 234° |
| 2026-04-22 11:08 | 28.28878 | 125.64207 | 35823 ft | 439 kts | 234° |
| 2026-04-22 11:09 | 28.25026 | 125.58828 | 35823 ft | 439 kts | 234° |
| 2026-04-22 11:09 | 28.21199 | 125.53492 | 35822 ft | 439 kts | 234° |
| 2026-04-22 11:10 | 28.17349 | 125.48128 | 35822 ft | 439 kts | 234° |
| 2026-04-22 11:10 | 28.13497 | 125.42770 | 35821 ft | 438 kts | 234° |
| 2026-04-22 11:11 | 28.09647 | 125.37420 | 35821 ft | 438 kts | 234° |
| 2026-04-22 11:11 | 28.05793 | 125.32072 | 35818 ft | 438 kts | 234° |
| 2026-04-22 11:12 | 28.01942 | 125.26734 | 35821 ft | 438 kts | 234° |
| 2026-04-22 11:12 | 27.98740 | 125.22303 | 35820 ft | 438 kts | 234° |
| 2026-04-22 11:13 | 27.94887 | 125.16975 | 35822 ft | 437 kts | 234° |
| 2026-04-22 11:13 | 27.91032 | 125.11651 | 35819 ft | 438 kts | 234° |
| 2026-04-22 11:14 | 27.87174 | 125.06330 | 35820 ft | 438 kts | 234° |
| 2026-04-22 11:14 | 27.83314 | 125.01012 | 35830 ft | 438 kts | 234° |
| 2026-04-22 11:15 | 27.79450 | 124.95696 | 35824 ft | 438 kts | 234° |
| 2026-04-22 11:15 | 27.75584 | 124.90384 | 35824 ft | 438 kts | 234° |
| 2026-04-22 11:16 | 27.71713 | 124.85071 | 35821 ft | 438 kts | 234° |
| 2026-04-22 11:16 | 27.67838 | 124.79760 | 35826 ft | 438 kts | 234° |
| 2026-04-22 11:17 | 27.63962 | 124.74453 | 35824 ft | 438 kts | 234° |
| 2026-04-22 11:17 | 27.60085 | 124.69148 | 35826 ft | 438 kts | 234° |
| 2026-04-22 11:18 | 27.56209 | 124.63847 | 35825 ft | 438 kts | 234° |
| 2026-04-22 11:18 | 27.52332 | 124.58549 | 35828 ft | 438 kts | 234° |
| 2026-04-22 11:19 | 27.48459 | 124.53264 | 35828 ft | 437 kts | 234° |
| 2026-04-22 11:19 | 27.44583 | 124.47982 | 35824 ft | 437 kts | 234° |
| 2026-04-22 11:20 | 27.40709 | 124.42708 | 35826 ft | 437 kts | 234° |
| 2026-04-22 11:20 | 27.36831 | 124.37436 | 35826 ft | 437 kts | 234° |
| 2026-04-22 11:21 | 27.32950 | 124.32165 | 35823 ft | 437 kts | 234° |
| 2026-04-22 11:21 | 27.29068 | 124.26901 | 35825 ft | 437 kts | 234° |
| 2026-04-22 11:22 | 27.25180 | 124.21634 | 35824 ft | 438 kts | 234° |
| 2026-04-22 11:22 | 27.21316 | 124.16406 | 35826 ft | 438 kts | 234° |
| 2026-04-22 11:23 | 27.17422 | 124.11142 | 35823 ft | 438 kts | 234° |
| 2026-04-22 11:23 | 27.13519 | 124.05874 | 35818 ft | 439 kts | 234° |
| 2026-04-22 11:24 | 27.09608 | 124.00602 | 35833 ft | 439 kts | 234° |
| 2026-04-22 11:24 | 27.05674 | 123.95343 | 35830 ft | 440 kts | 233° |
| 2026-04-22 11:25 | 27.01715 | 123.90096 | 35832 ft | 441 kts | 233° |
| 2026-04-22 11:25 | 26.97754 | 123.84843 | 35831 ft | 441 kts | 233° |
| 2026-04-22 11:26 | 26.93791 | 123.79592 | 35835 ft | 441 kts | 233° |
| 2026-04-22 11:26 | 26.90338 | 123.75018 | 35832 ft | 441 kts | 233° |
| 2026-04-22 11:27 | 26.86372 | 123.69773 | 35824 ft | 441 kts | 233° |
| 2026-04-22 11:27 | 26.82407 | 123.64535 | 35826 ft | 441 kts | 233° |
| 2026-04-22 11:28 | 26.78465 | 123.59333 | 35829 ft | 441 kts | 233° |
| 2026-04-22 11:28 | 26.74496 | 123.54103 | 35831 ft | 441 kts | 233° |
| 2026-04-22 11:29 | 26.70527 | 123.48879 | 35828 ft | 441 kts | 233° |
| 2026-04-22 11:29 | 26.66556 | 123.43658 | 35827 ft | 441 kts | 233° |
| 2026-04-22 11:30 | 26.62585 | 123.38443 | 35826 ft | 440 kts | 233° |
| 2026-04-22 11:30 | 26.58611 | 123.33231 | 35824 ft | 441 kts | 233° |
| 2026-04-22 11:31 | 26.54634 | 123.28022 | 35822 ft | 441 kts | 233° |
| 2026-04-22 11:31 | 26.50654 | 123.22815 | 35824 ft | 441 kts | 233° |
| 2026-04-22 11:32 | 26.46671 | 123.17609 | 35823 ft | 441 kts | 233° |
| 2026-04-22 11:32 | 26.42679 | 123.12398 | 35822 ft | 442 kts | 233° |
| 2026-04-22 11:33 | 26.38684 | 123.07191 | 35825 ft | 442 kts | 233° |
| 2026-04-22 11:33 | 26.34687 | 123.01985 | 35826 ft | 442 kts | 233° |
| 2026-04-22 11:34 | 26.30708 | 122.96811 | 35824 ft | 442 kts | 233° |
| 2026-04-22 11:34 | 26.26701 | 122.91608 | 35827 ft | 442 kts | 233° |
| 2026-04-22 11:35 | 26.22691 | 122.86406 | 35829 ft | 443 kts | 233° |
| 2026-04-22 11:35 | 26.18676 | 122.81205 | 35828 ft | 443 kts | 233° |
| 2026-04-22 11:36 | 26.14658 | 122.76004 | 35820 ft | 443 kts | 233° |
| 2026-04-22 11:36 | 26.10635 | 122.70803 | 35830 ft | 443 kts | 233° |
| 2026-04-22 11:37 | 26.06608 | 122.65604 | 35833 ft | 444 kts | 233° |
| 2026-04-22 11:37 | 26.02580 | 122.60411 | 35765 ft | 442 kts | 233° |
| 2026-04-22 11:37 | 26.00571 | 122.57822 | 35185 ft | 443 kts | 233° |
| 2026-04-22 11:38 | 25.98548 | 122.55215 | 34190 ft | 448 kts | 233° |
| 2026-04-22 11:38 | 25.96493 | 122.52563 | 32714 ft | 458 kts | 233° |
| 2026-04-22 11:38 | 25.92268 | 122.47125 | 29511 ft | 471 kts | 232° |
| 2026-04-22 11:39 | 25.90130 | 122.44379 | 28362 ft | 466 kts | 232° |
| 2026-04-22 11:39 | 25.88026 | 122.41681 | 27518 ft | 459 kts | 232° |
| 2026-04-22 11:39 | 25.85951 | 122.39020 | 26784 ft | 452 kts | 232° |
| 2026-04-22 11:39 | 25.83907 | 122.36397 | 26020 ft | 447 kts | 232° |
| 2026-04-22 11:40 | 25.81884 | 122.33802 | 25284 ft | 442 kts | 232° |
| 2026-04-22 11:40 | 25.79887 | 122.31240 | 24547 ft | 437 kts | 232° |
| 2026-04-22 11:40 | 25.77908 | 122.28704 | 23839 ft | 432 kts | 232° |
| 2026-04-22 11:40 | 25.75951 | 122.26196 | 23078 ft | 428 kts | 232° |
| 2026-04-22 11:41 | 25.74019 | 122.23723 | 22401 ft | 420 kts | 232° |
| 2026-04-22 11:41 | 25.72127 | 122.21305 | 21776 ft | 411 kts | 232° |
| 2026-04-22 11:41 | 25.70272 | 122.18935 | 21162 ft | 403 kts | 232° |
| 2026-04-22 11:41 | 25.68453 | 122.16611 | 20509 ft | 396 kts | 232° |
| 2026-04-22 11:42 | 25.66666 | 122.14328 | 19925 ft | 388 kts | 232° |
| 2026-04-22 11:42 | 25.64909 | 122.12085 | 19289 ft | 382 kts | 232° |
| 2026-04-22 11:42 | 25.63226 | 122.09864 | 18875 ft | 369 kts | 236° |
| 2026-04-22 11:42 | 25.61854 | 122.07503 | 18339 ft | 361 kts | 244° |
| 2026-04-22 11:43 | 25.60844 | 122.04990 | 17770 ft | 352 kts | 252° |
| 2026-04-22 11:43 | 25.60163 | 122.02422 | 17222 ft | 343 kts | 256° |
| 2026-04-22 11:43 | 25.59550 | 121.99901 | 16676 ft | 335 kts | 256° |
| 2026-04-22 11:43 | 25.58935 | 121.97440 | 16153 ft | 328 kts | 255° |
| 2026-04-22 11:44 | 25.58323 | 121.95029 | 15625 ft | 323 kts | 255° |
| 2026-04-22 11:44 | 25.57686 | 121.92525 | 15185 ft | 350 kts | 255° |
| 2026-04-22 11:44 | 25.57020 | 121.89916 | 14977 ft | 352 kts | 255° |
| 2026-04-22 11:44 | 25.56351 | 121.87298 | 14319 ft | 355 kts | 255° |
| 2026-04-22 11:45 | 25.55681 | 121.84675 | 13443 ft | 361 kts | 254° |
| 2026-04-22 11:45 | 25.54999 | 121.82014 | 12707 ft | 354 kts | 254° |
| 2026-04-22 11:45 | 25.54338 | 121.79443 | 12170 ft | 341 kts | 254° |
| 2026-04-22 11:45 | 25.53699 | 121.76958 | 11620 ft | 330 kts | 254° |
| 2026-04-22 11:46 | 25.53081 | 121.74551 | 11103 ft | 320 kts | 254° |
| 2026-04-22 11:46 | 25.52482 | 121.72215 | 10561 ft | 311 kts | 254° |
| 2026-04-22 11:46 | 25.51901 | 121.69955 | 10267 ft | 296 kts | 254° |
| 2026-04-22 11:46 | 25.51355 | 121.67835 | 10120 ft | 277 kts | 254° |
| 2026-04-22 11:47 | 25.50841 | 121.65837 | 9736 ft | 266 kts | 254° |
| 2026-04-22 11:47 | 25.50341 | 121.63894 | 9367 ft | 257 kts | 254° |
| 2026-04-22 11:47 | 25.49851 | 121.61989 | 9235 ft | 260 kts | 254° |
| 2026-04-22 11:47 | 25.49357 | 121.60070 | 9107 ft | 259 kts | 254° |
| 2026-04-22 11:48 | 25.48783 | 121.58193 | 8976 ft | 257 kts | 246° |
| 2026-04-22 11:48 | 25.47894 | 121.56477 | 8821 ft | 258 kts | 236° |
| 2026-04-22 11:48 | 25.46735 | 121.54952 | 8466 ft | 259 kts | 230° |
| 2026-04-22 11:48 | 25.45546 | 121.53479 | 8050 ft | 254 kts | 230° |
| 2026-04-22 11:49 | 25.44385 | 121.52017 | 7465 ft | 251 kts | 230° |
| 2026-04-22 11:49 | 25.43243 | 121.50560 | 6870 ft | 249 kts | 229° |
| 2026-04-22 11:49 | 25.42111 | 121.49107 | 6289 ft | 248 kts | 229° |
| 2026-04-22 11:49 | 25.40996 | 121.47683 | 5731 ft | 243 kts | 227° |
| 2026-04-22 11:50 | 25.39652 | 121.46573 | 5073 ft | 243 kts | 207° |
| 2026-04-22 11:50 | 25.38003 | 121.46135 | 4424 ft | 247 kts | 186° |
| 2026-04-22 11:50 | 25.36291 | 121.46099 | 3829 ft | 244 kts | 185° |
| 2026-04-22 11:50 | 25.34588 | 121.46065 | 3602 ft | 248 kts | 186° |
| 2026-04-22 11:51 | 25.32867 | 121.46007 | 3517 ft | 247 kts | 186° |
| 2026-04-22 11:51 | 25.31155 | 121.45937 | 3514 ft | 241 kts | 186° |
| 2026-04-22 11:51 | 25.29561 | 121.45869 | 3509 ft | 217 kts | 187° |
| 2026-04-22 11:51 | 25.28118 | 121.45804 | 3512 ft | 201 kts | 187° |
| 2026-04-22 11:52 | 25.26731 | 121.45571 | 3516 ft | 201 kts | 203° |
| 2026-04-22 11:52 | 25.25545 | 121.44798 | 3520 ft | 198 kts | 221° |
| 2026-04-22 11:52 | 25.24570 | 121.43722 | 3517 ft | 199 kts | 228° |
| 2026-04-22 11:52 | 25.23694 | 121.42565 | 3511 ft | 195 kts | 230° |
| 2026-04-22 11:53 | 25.22796 | 121.41416 | 3519 ft | 199 kts | 228° |
| 2026-04-22 11:53 | 25.21893 | 121.40264 | 3513 ft | 198 kts | 229° |
| 2026-04-22 11:53 | 25.20994 | 121.39113 | 3399 ft | 197 kts | 228° |
| 2026-04-22 11:53 | 25.20114 | 121.37988 | 3149 ft | 191 kts | 228° |
| 2026-04-22 11:54 | 25.19259 | 121.36894 | 2901 ft | 185 kts | 228° |
| 2026-04-22 11:54 | 25.18427 | 121.35832 | 2660 ft | 180 kts | 228° |
| 2026-04-22 11:54 | 25.17626 | 121.34808 | 2430 ft | 170 kts | 229° |
| 2026-04-22 11:54 | 25.16898 | 121.33876 | 2243 ft | 154 kts | 229° |
| 2026-04-22 11:55 | 25.16220 | 121.33011 | 2031 ft | 140 kts | 229° |
| 2026-04-22 11:55 | 25.15604 | 121.32222 | 1864 ft | 137 kts | 229° |
| 2026-04-22 11:55 | 25.14997 | 121.31443 | 1694 ft | 128 kts | 229° |
| 2026-04-22 11:55 | 25.14447 | 121.30744 | 1539 ft | 121 kts | 228° |
| 2026-04-22 11:56 | 25.13881 | 121.30023 | 1379 ft | 125 kts | 230° |
| 2026-04-22 11:56 | 25.13326 | 121.29307 | 1228 ft | 124 kts | 229° |
| 2026-04-22 11:56 | 25.12751 | 121.28601 | 1056 ft | 126 kts | 229° |
| 2026-04-22 11:56 | 25.12174 | 121.27863 | 894 ft | 126 kts | 233° |
| 2026-04-22 11:57 | 25.11627 | 121.27075 | 696 ft | 129 kts | 227° |
| 2026-04-22 11:57 | 25.11037 | 121.26317 | 548 ft | 133 kts | 226° |
| 2026-04-22 11:57 | 25.10425 | 121.25558 | 389 ft | 131 kts | 229° |
| 2026-04-22 11:57 | 25.09808 | 121.24793 | 229 ft | 134 kts | 227° |
| 2026-04-22 11:58 | 25.09215 | 121.24040 | 90 ft | 126 kts | 229° |
| 2026-04-22 11:58 | 25.08727 | 121.23419 | 88 ft | 79 kts | 229° |
| 2026-04-22 11:58 | 25.08485 | 121.23117 | 85 ft | 39 kts | 229° |
| 2026-04-22 11:58 | 25.08316 | 121.22901 | 88 ft | 35 kts | 229° |
| 2026-04-22 11:59 | 25.08149 | 121.22741 | 85 ft | 29 kts | 211° |
| 2026-04-22 11:59 | 25.07986 | 121.22659 | 86 ft | 24 kts | 199° |
| 2026-04-22 11:59 | 25.07913 | 121.22688 | 89 ft | 6 kts | 107° |
| 2026-04-22 11:59 | 25.07934 | 121.22737 | 88 ft | 8 kts | 53° |
| 2026-04-22 12:00 | 25.07975 | 121.22792 | 90 ft | 11 kts | 50° |
| 2026-04-22 12:00 | 25.08030 | 121.22863 | 89 ft | 14 kts | 50° |
| 2026-04-22 12:00 | 25.08073 | 121.22919 | 86 ft | 16 kts | 49° |
| 2026-04-22 12:00 | 25.08151 | 121.23017 | 89 ft | 18 kts | 49° |
| 2026-04-22 12:01 | 25.08271 | 121.23169 | 89 ft | 22 kts | 49° |
| 2026-04-22 12:01 | 25.08339 | 121.23255 | 89 ft | 21 kts | 49° |
| 2026-04-22 12:01 | 25.08445 | 121.23388 | 88 ft | 13 kts | 49° |
| 2026-04-22 12:01 | 25.08464 | 121.23452 | 88 ft | 9 kts | 100° |
| 2026-04-22 12:02 | 25.08432 | 121.23511 | 87 ft | 9 kts | 116° |
| 2026-04-22 12:02 | 25.08443 | 121.23554 | 89 ft | 9 kts | 60° |
| 2026-04-22 12:02 | 25.08483 | 121.23635 | 87 ft | 8 kts | 98° |
| 2026-04-22 12:02 | 25.08448 | 121.23677 | 88 ft | 7 kts | 138° |
| 2026-04-22 12:03 | 25.08424 | 121.23700 | 91 ft | 7 kts | 139° |
| 2026-04-22 12:03 | 25.08407 | 121.23716 | 89 ft | 0 kts | 139° |
| 2026-04-22 12:03 | 25.08403 | 121.23720 | 89 ft | 1 kts | 139° |
| 2026-04-22 12:03 | 25.08401 | 121.23723 | 90 ft | 0 kts | 139° |